Bridgeport, WV (26330)

1:51 AM EDT on October 01, 2014 (GMT -0400)
Whispering Pines | Change Station
CLOSE
Current Station
Personal Weather Station
Location: Bridgeport, WV
Elevation: 1227 ft
Nearby Weather Stations

Elev 1227 ft 39.28 °N, 80.20 °W | Updated 4 minutes ago

Mostly Cloudy
Mostly Cloudy
58.5 °F
Feels Like 58.5 °F
N
0.0
Wind Variable Wind from NE

Today
High -- | Low -- °F
--% Chance of Precip.
Yesterday
High -- | Low -- °F
Precip. -- in
7:17 AM 7:03 PM
Waxing Crescent, 44% visible
Pressure 29.93 in
Visibility 4.0 miles
Clouds Few 300 ft
Scattered Clouds 5000 ft
Mostly Cloudy 6500 ft
Dew Point 57 °F
Humidity 95%
Rainfall 0.00 in
Snow Depth Not available.
UV 0 out of 12
Pollen 3.20 out of 12
Air Quality Not available.
Flu Activity Not available.
METAR KCKB 010453Z 00000KT 4SM BR FEW003 SCT050 BKN065 14/14 A2996 RMK AO2 SLP133 T01440139 402560111

More Conditions Fewer Conditions

Pressure 29.93 in
Visibility 4.0 miles
Clouds Few 300 ft
Scattered Clouds 5000 ft
Mostly Cloudy 6500 ft
Dew Point 57 °F
Humidity 95%
Rainfall 0.00 in
Snow Depth Not available.
UV 0 out of 12
Pollen 3.20 out of 12
Air Quality Not available.
Flu Activity Not available.
METAR KCKB 010453Z 00000KT 4SM BR FEW003 SCT050 BKN065 14/14 A2996 RMK AO2 SLP133 T01440139 402560111

More Conditions Fewer Conditions

10-Day Weather Forecast

Almanac

Astronomy

Oct. 01, 2014 Rise Set
Actual Time 7:17 AM EDT 7:03 PM EDT
Civil Twilight 6:50 AM EDT 7:30 PM EDT
Nautical Twilight 6:19 AM EDT 8:01 PM EDT
Astronomical Twilight 5:47 AM EDT 8:32 PM EDT
Moon 2:15 PM EDT No Moon Set
Length of Visible Light 12h 39m
Length of Day
11h 46m
Tomorrow will be 2m 32s shorter.
Waxing Crescent, 44% of the Moon is Illuminated
Today
Waxing Crescent
Oct 1
First Quarter
Oct 8
Full
Oct 15
Last Quarter
Oct 23
New

Today's Extremes

State Highs State Lows

Community

WunderPhotos

Upload Photos

1,757,875 photos uploaded!

Nearby

Snow Depth

Station Depth Elevation
No new snow has been reported.

Earthquake Activity

City Distance Mag. Time & Date
No recent earthquake activity has been reported nearby.
Minimum magnitude displayed is 2.5.

Coastal Water Temperatures

Place Temperature
No Stations Reporting

Nearby Weather Stations